Time;durP1;ratioP1;P1;durP2;ratioP2;P2;SDS_P1;SDS_P2;PMS_P1;PMS_P2;Temp;Humidity;BMP_temperature;BMP_pressure;BME280_temperature;BME280_humidity;BME280_pressure;Samples;Min_cycle;Max_cycle;Signal;HPM_P1;HPM_P2
2022/11/14 00:02:03;;;;;;;40.83;23.98;;;6.70;99.90;;;;;;4931794;29;20095;-71
2022/11/14 00:04:29;;;;;;;40.20;23.33;;;6.80;99.90;;;;;;4934848;28;20082;-71
2022/11/14 00:06:55;;;;;;;41.08;23.42;;;6.80;99.90;;;;;;4940589;29;20051;-71
2022/11/14 00:09:25;;;;;;;42.72;23.65;;;6.80;99.90;;;;;;4933132;29;20074;-71
2022/11/14 00:11:51;;;;;;;38.03;21.52;;;6.80;99.90;;;;;;4936288;29;20106;-71
2022/11/14 00:14:16;;;;;;;36.50;21.85;;;6.80;99.90;;;;;;4929056;29;20102;-70
2022/11/14 00:16:42;;;;;;;37.58;21.17;;;6.80;99.90;;;;;;4918713;29;20383;-71
2022/11/14 00:19:08;;;;;;;35.60;20.67;;;6.80;99.90;;;;;;4931498;29;20195;-71
2022/11/14 00:21:34;;;;;;;37.40;21.08;;;6.80;99.90;;;;;;4932152;29;20055;-71
2022/11/14 00:24:00;;;;;;;42.70;22.77;;;6.90;99.90;;;;;;4915240;29;20043;-72
2022/11/14 00:26:25;;;;;;;35.90;22.08;;;6.90;99.90;;;;;;4925859;29;20051;-71
2022/11/14 00:28:53;;;;;;;41.30;23.73;;;6.90;99.90;;;;;;4916470;29;20048;-71
2022/11/14 00:31:19;;;;;;;40.47;23.00;;;6.90;99.90;;;;;;4914514;29;20047;-71
2022/11/14 00:33:45;;;;;;;39.45;24.00;;;6.90;99.90;;;;;;4938785;29;20524;-71
2022/11/14 00:36:11;;;;;;;37.65;22.63;;;6.90;99.90;;;;;;4941367;29;20051;-71
2022/11/14 00:38:36;;;;;;;39.03;22.73;;;6.90;99.90;;;;;;4931025;29;20047;-71
2022/11/14 00:41:02;;;;;;;37.88;22.42;;;6.90;99.90;;;;;;4931659;29;20051;-71
2022/11/14 00:43:28;;;;;;;44.70;23.90;;;6.90;99.90;;;;;;4923020;29;20174;-71
2022/11/14 00:45:54;;;;;;;40.88;23.67;;;6.90;99.90;;;;;;4936850;29;20053;-71
2022/11/14 00:48:20;;;;;;;41.15;23.42;;;6.90;99.90;;;;;;4930917;29;20043;-71
2022/11/14 00:50:45;;;;;;;39.67;24.73;;;7.00;99.90;;;;;;4924536;29;20058;-71
2022/11/14 00:53:12;;;;;;;39.28;24.10;;;7.00;99.90;;;;;;4933321;28;20176;-71
2022/11/14 00:55:37;;;;;;;44.33;25.80;;;7.00;99.90;;;;;;4933028;29;20113;-71
2022/11/14 00:58:03;;;;;;;42.35;25.00;;;7.00;99.90;;;;;;4915562;29;20051;-71
2022/11/14 01:00:29;;;;;;;44.10;26.13;;;7.00;99.90;;;;;;4928180;29;20138;-71
2022/11/14 01:02:57;;;;;;;44.20;25.63;;;7.00;99.90;;;;;;4929782;29;20043;-71
2022/11/14 01:05:24;;;;;;;44.60;25.00;;;7.00;99.90;;;;;;4946775;28;20087;-72
2022/11/14 01:07:50;;;;;;;44.05;26.70;;;7.00;99.90;;;;;;4914717;28;20039;-71
2022/11/14 01:10:17;;;;;;;42.90;25.90;;;7.00;99.90;;;;;;4936862;29;20061;-71
2022/11/14 01:12:43;;;;;;;45.00;26.65;;;7.00;99.90;;;;;;4929431;28;20104;-71
2022/11/14 01:15:09;;;;;;;45.55;25.70;;;7.10;99.90;;;;;;4919875;29;20455;-71
2022/11/14 01:17:35;;;;;;;46.58;27.17;;;7.00;99.90;;;;;;4916536;29;20047;-71
2022/11/14 01:20:00;;;;;;;42.75;26.30;;;7.00;99.90;;;;;;4916500;29;20047;-71
2022/11/14 01:22:28;;;;;;;51.15;28.00;;;7.00;99.90;;;;;;4913708;29;20052;-71
2022/11/14 01:24:54;;;;;;;52.35;27.60;;;7.10;99.90;;;;;;4883075;29;20051;-72
2022/11/14 01:27:19;;;;;;;44.72;28.10;;;7.00;99.90;;;;;;4889470;29;20048;-71
2022/11/14 01:29:45;;;;;;;51.50;29.33;;;7.10;99.90;;;;;;4905502;29;20043;-71
2022/11/14 01:32:11;;;;;;;48.45;29.42;;;7.10;99.90;;;;;;4898033;29;20055;-71
2022/11/14 01:34:37;;;;;;;48.08;29.08;;;7.10;99.90;;;;;;4906401;29;20052;-71
2022/11/14 01:37:02;;;;;;;47.20;29.58;;;7.10;99.90;;;;;;4898071;29;20139;-71
2022/11/14 01:39:28;;;;;;;49.65;30.05;;;7.10;99.90;;;;;;4896286;29;20048;-71
2022/11/14 01:41:54;;;;;;;51.13;30.20;;;7.10;99.90;;;;;;4903794;29;20109;-71
2022/11/14 01:44:42;;;;;;;47.92;30.50;;;7.10;99.90;;;;;;4889871;29;20700;-72
2022/11/14 01:47:10;;;;;;;50.95;32.05;;;7.10;99.90;;;;;;4895920;29;20060;-72
2022/11/14 01:49:45;;;;;;;48.67;31.33;;;7.10;99.90;;;;;;4880464;29;20047;-72
2022/11/14 01:52:36;;;;;;;54.95;32.53;;;7.00;99.90;;;;;;4893644;29;20044;-72
2022/11/14 01:55:06;;;;;;;54.08;34.28;;;7.00;99.90;;;;;;4895403;29;20175;-71
2022/11/14 01:57:40;;;;;;;55.47;34.17;;;7.00;99.90;;;;;;4895291;29;20533;-71
2022/11/14 02:00:09;;;;;;;59.72;35.53;;;7.00;99.90;;;;;;4894937;29;20062;-71
2022/11/14 02:02:36;;;;;;;60.55;35.85;;;7.00;99.90;;;;;;4904639;29;20581;-71
2022/11/14 02:05:13;;;;;;;60.97;36.75;;;7.00;99.90;;;;;;4892609;29;20086;-71
2022/11/14 02:07:40;;;;;;;57.38;36.20;;;7.00;99.90;;;;;;4911580;29;20103;-72
2022/11/14 02:10:24;;;;;;;60.47;36.97;;;7.00;99.90;;;;;;4898341;29;20060;-72
2022/11/14 02:12:51;;;;;;;62.28;37.13;;;6.90;99.90;;;;;;4899434;29;20048;-71
2022/11/14 02:15:17;;;;;;;62.55;36.53;;;6.90;99.90;;;;;;4891894;29;20063;-71
2022/11/14 02:17:43;;;;;;;61.97;38.40;;;6.90;99.90;;;;;;4895735;29;20121;-71
2022/11/14 02:20:09;;;;;;;60.03;37.60;;;6.80;99.90;;;;;;4879832;29;20947;-72
2022/11/14 02:22:36;;;;;;;62.33;37.72;;;6.90;99.90;;;;;;4932102;29;20415;-72
2022/11/14 02:25:02;;;;;;;68.60;39.90;;;6.80;99.90;;;;;;4928056;28;20051;-71
2022/11/14 02:27:30;;;;;;;67.57;38.47;;;6.80;99.90;;;;;;4928759;28;20047;-71
2022/11/14 02:30:04;;;;;;;63.45;39.20;;;6.80;99.90;;;;;;4929101;29;20234;-72
2022/11/14 02:32:29;;;;;;;66.75;39.05;;;6.80;99.90;;;;;;4930105;28;20057;-71
2022/11/14 02:34:55;;;;;;;65.43;39.08;;;6.80;99.90;;;;;;4929552;28;20952;-71
2022/11/14 02:37:21;;;;;;;68.75;39.03;;;6.80;99.90;;;;;;4918795;29;20059;-72
2022/11/14 02:39:47;;;;;;;66.55;40.28;;;6.70;99.90;;;;;;4911888;29;20164;-72
2022/11/14 02:42:12;;;;;;;65.03;39.60;;;6.80;99.90;;;;;;4927737;29;20051;-72
2022/11/14 02:44:38;;;;;;;69.65;40.88;;;6.80;99.90;;;;;;4912999;29;20054;-71
2022/11/14 02:47:04;;;;;;;70.03;40.47;;;6.80;99.90;;;;;;4930404;29;20053;-72
2022/11/14 02:49:30;;;;;;;70.72;40.65;;;6.80;99.90;;;;;;4929513;29;20062;-71
2022/11/14 02:51:56;;;;;;;68.32;40.53;;;6.80;99.90;;;;;;4927448;28;20051;-71
2022/11/14 02:54:22;;;;;;;63.65;39.00;;;6.80;99.90;;;;;;4944818;28;20467;-72
2022/11/14 02:56:48;;;;;;;66.57;38.88;;;6.70;99.90;;;;;;4919242;29;20170;-71
2022/11/14 02:59:13;;;;;;;71.57;40.03;;;6.70;99.90;;;;;;4918234;28;20056;-72
2022/11/14 03:01:39;;;;;;;65.05;38.58;;;6.70;99.90;;;;;;4928705;29;20043;-71
2022/11/14 03:04:05;;;;;;;66.60;38.53;;;6.80;99.90;;;;;;4928746;29;20055;-71
2022/11/14 03:06:31;;;;;;;68.63;38.58;;;6.80;99.90;;;;;;4929038;29;20047;-71
2022/11/14 03:08:57;;;;;;;68.53;39.17;;;6.80;99.90;;;;;;4927223;29;20047;-71
2022/11/14 03:11:22;;;;;;;68.35;38.90;;;6.80;99.90;;;;;;4927455;29;20547;-71
2022/11/14 03:13:48;;;;;;;71.03;39.28;;;6.80;99.90;;;;;;4943229;28;20059;-71
2022/11/14 03:16:14;;;;;;;68.53;38.72;;;6.90;99.90;;;;;;4918346;29;20048;-71
2022/11/14 03:18:40;;;;;;;68.25;39.35;;;6.80;99.90;;;;;;4938396;28;20082;-72
2022/11/14 03:21:14;;;;;;;66.55;37.50;;;6.80;99.90;;;;;;4919662;29;20075;-71
2022/11/14 03:23:41;;;;;;;68.88;38.30;;;6.90;99.90;;;;;;4929809;29;20051;-71
2022/11/14 03:26:09;;;;;;;66.97;38.58;;;6.90;99.90;;;;;;4939746;28;20062;-71
2022/11/14 03:28:36;;;;;;;59.83;36.28;;;6.90;99.90;;;;;;4930466;29;20055;-71
2022/11/14 03:31:02;;;;;;;65.05;36.50;;;6.90;99.90;;;;;;4929912;29;20134;-71
2022/11/14 03:33:28;;;;;;;69.07;36.65;;;6.90;99.90;;;;;;4913415;29;20055;-72
2022/11/14 03:35:54;;;;;;;66.60;37.15;;;6.90;99.90;;;;;;4932577;29;20113;-71
2022/11/14 03:38:23;;;;;;;66.30;36.88;;;6.90;99.90;;;;;;4921073;29;20528;-71
2022/11/14 03:40:50;;;;;;;62.92;35.83;;;7.00;99.90;;;;;;4934239;28;20106;-71
2022/11/14 03:43:17;;;;;;;64.10;36.45;;;7.00;99.90;;;;;;4930560;28;20055;-71
2022/11/14 03:45:43;;;;;;;60.35;35.47;;;7.00;99.90;;;;;;4928623;29;20051;-71
2022/11/14 03:48:09;;;;;;;62.00;34.75;;;7.00;99.90;;;;;;4932052;29;20047;-72
2022/11/14 03:50:35;;;;;;;65.07;36.35;;;7.00;99.90;;;;;;4938574;29;20103;-71
2022/11/14 03:53:01;;;;;;;62.22;36.53;;;7.00;99.90;;;;;;4927147;29;20079;-71
2022/11/14 03:55:28;;;;;;;59.75;36.05;;;7.00;99.90;;;;;;4919132;29;20642;-71
2022/11/14 03:57:54;;;;;;;61.80;35.42;;;7.00;99.90;;;;;;4922807;29;20159;-71
2022/11/14 04:00:20;;;;;;;63.45;36.22;;;7.00;99.90;;;;;;4925369;29;20099;-71
2022/11/14 04:02:46;;;;;;;63.30;36.50;;;7.00;99.90;;;;;;4926291;28;20123;-70
2022/11/14 04:05:13;;;;;;;63.05;36.85;;;7.00;99.90;;;;;;4934874;28;20054;-70
2022/11/14 04:07:38;;;;;;;61.53;37.05;;;7.00;99.90;;;;;;4919172;29;22544;-72
2022/11/14 04:10:05;;;;;;;60.65;38.00;;;7.00;99.90;;;;;;4928117;29;20063;-72
2022/11/14 04:12:31;;;;;;;65.00;36.58;;;7.00;99.90;;;;;;4921527;29;20043;-73
2022/11/14 04:14:57;;;;;;;64.07;36.42;;;7.00;99.90;;;;;;4927690;28;20980;-72
2022/11/14 04:17:23;;;;;;;58.15;36.55;;;7.00;99.90;;;;;;4927511;29;20510;-71
2022/11/14 04:19:49;;;;;;;66.00;37.63;;;7.00;99.90;;;;;;4928456;29;20399;-71
2022/11/14 04:22:15;;;;;;;60.92;36.75;;;7.00;99.90;;;;;;4912175;29;20897;-70
2022/11/14 04:24:40;;;;;;;64.72;36.97;;;7.00;99.90;;;;;;4893423;29;20053;-71
2022/11/14 04:27:07;;;;;;;60.05;36.22;;;7.00;99.90;;;;;;4922186;29;20058;-71
2022/11/14 04:29:32;;;;;;;61.22;36.72;;;7.00;99.90;;;;;;4928816;29;20051;-71
2022/11/14 04:31:58;;;;;;;62.80;37.53;;;6.90;99.90;;;;;;4929272;29;20516;-70
2022/11/14 04:34:24;;;;;;;54.95;35.53;;;7.00;99.90;;;;;;4894569;29;20134;-71
2022/11/14 04:36:50;;;;;;;62.70;37.28;;;7.00;99.90;;;;;;4912850;29;20055;-71
2022/11/14 04:39:16;;;;;;;61.22;37.40;;;7.10;99.90;;;;;;4913583;29;20063;-70
2022/11/14 04:41:42;;;;;;;68.60;39.58;;;7.00;99.90;;;;;;4931300;28;20058;-71
2022/11/14 04:44:08;;;;;;;66.07;39.00;;;7.00;99.90;;;;;;4937101;29;20043;-70
2022/11/14 04:46:34;;;;;;;64.05;39.25;;;7.00;99.90;;;;;;4907263;29;20052;-71
2022/11/14 04:49:00;;;;;;;64.57;39.63;;;7.10;99.90;;;;;;4932476;29;20047;-71
2022/11/14 04:51:26;;;;;;;64.43;38.75;;;7.00;99.90;;;;;;4931881;28;20059;-71
2022/11/14 04:53:51;;;;;;;66.63;38.92;;;7.00;99.90;;;;;;4934822;29;20051;-70
2022/11/14 04:56:17;;;;;;;66.25;39.20;;;7.00;99.90;;;;;;4913613;29;20051;-71
2022/11/14 04:58:43;;;;;;;64.35;40.28;;;7.00;99.90;;;;;;4889330;29;20051;-71
2022/11/14 05:01:10;;;;;;;62.45;38.55;;;7.00;99.90;;;;;;4940373;29;20051;-71
2022/11/14 05:03:36;;;;;;;61.53;39.03;;;7.00;99.90;;;;;;4929584;29;20134;-70
2022/11/14 05:06:03;;;;;;;62.78;38.55;;;7.10;99.90;;;;;;4920573;29;20051;-72
2022/11/14 05:08:28;;;;;;;61.78;36.97;;;7.10;99.90;;;;;;4936629;29;20418;-71
2022/11/14 05:10:54;;;;;;;61.30;37.47;;;7.00;99.90;;;;;;4929550;28;20142;-71
2022/11/14 05:13:20;;;;;;;60.00;37.30;;;7.10;99.90;;;;;;4922120;29;20145;-71
2022/11/14 05:15:46;;;;;;;61.83;37.15;;;7.00;99.90;;;;;;4945842;28;20087;-70
2022/11/14 05:18:11;;;;;;;58.72;36.40;;;7.00;99.90;;;;;;4934380;29;20125;-71
2022/11/14 05:20:37;;;;;;;57.38;36.33;;;7.00;99.90;;;;;;4938335;29;21034;-71
2022/11/14 05:23:04;;;;;;;58.80;36.20;;;7.00;99.90;;;;;;4897617;29;20419;-70
2022/11/14 05:25:30;;;;;;;58.03;34.90;;;7.00;99.90;;;;;;4904480;29;20059;-71
2022/11/14 05:27:55;;;;;;;59.13;35.22;;;7.00;99.90;;;;;;4902861;29;20051;-71
2022/11/14 05:30:21;;;;;;;56.20;35.17;;;7.00;99.90;;;;;;4882748;29;20103;-71
2022/11/14 05:32:47;;;;;;;58.08;35.67;;;7.00;99.90;;;;;;4882190;29;20135;-71
2022/11/14 05:35:13;;;;;;;55.80;34.90;;;7.00;99.90;;;;;;4893682;29;20545;-70
2022/11/14 05:37:39;;;;;;;58.33;33.88;;;7.00;99.90;;;;;;4880933;29;20052;-70
2022/11/14 05:40:05;;;;;;;58.13;35.42;;;7.00;99.90;;;;;;4886074;29;20052;-70
2022/11/14 05:42:31;;;;;;;59.53;35.85;;;7.00;99.90;;;;;;4895127;29;20055;-70
2022/11/14 05:44:57;;;;;;;63.38;36.15;;;7.00;99.90;;;;;;4901701;29;20849;-70
2022/11/14 05:47:22;;;;;;;58.03;35.05;;;6.90;99.90;;;;;;4888804;29;20134;-70
2022/11/14 05:49:48;;;;;;;58.58;35.58;;;6.90;99.90;;;;;;4892230;29;20048;-70
2022/11/14 05:52:14;;;;;;;63.10;36.55;;;6.90;99.90;;;;;;4901303;29;20510;-70
2022/11/14 05:54:40;;;;;;;60.60;36.40;;;6.90;99.90;;;;;;4894480;29;20112;-71
2022/11/14 05:57:05;;;;;;;65.28;37.17;;;6.90;99.90;;;;;;4912064;29;20052;-71
2022/11/14 05:59:31;;;;;;;62.40;36.88;;;6.90;99.90;;;;;;4904223;29;20052;-71
2022/11/14 06:01:57;;;;;;;63.13;36.17;;;6.90;99.90;;;;;;4897644;29;20059;-70
2022/11/14 06:04:23;;;;;;;62.95;35.35;;;6.80;99.90;;;;;;4886618;29;20501;-70
2022/11/14 06:06:49;;;;;;;61.28;35.65;;;6.90;99.90;;;;;;4879789;29;20048;-70
2022/11/14 06:09:14;;;;;;;60.13;35.65;;;6.80;99.90;;;;;;4898547;29;20052;-70
2022/11/14 06:11:40;;;;;;;56.88;36.13;;;6.80;99.90;;;;;;4894550;29;20052;-71
2022/11/14 06:14:06;;;;;;;64.55;35.72;;;6.80;99.90;;;;;;4894371;29;20062;-70
2022/11/14 06:16:32;;;;;;;57.15;34.85;;;6.80;99.90;;;;;;4894902;29;20134;-71
2022/11/14 06:18:57;;;;;;;61.67;35.53;;;6.80;99.90;;;;;;4891112;29;20127;-70
2022/11/14 06:21:25;;;;;;;61.33;36.00;;;6.80;99.90;;;;;;4907221;29;20067;-70
2022/11/14 06:23:51;;;;;;;61.13;35.75;;;6.80;99.90;;;;;;4934016;28;20047;-73
2022/11/14 06:26:31;;;;;;;62.47;36.67;;;6.70;99.90;;;;;;4934264;29;20386;-72
2022/11/14 06:28:58;;;;;;;59.47;35.50;;;6.70;99.90;;;;;;4931576;29;20776;-73
2022/11/14 06:31:25;;;;;;;64.38;35.55;;;6.70;99.90;;;;;;4913092;29;20055;-73
2022/11/14 06:33:51;;;;;;;63.90;35.47;;;6.70;99.90;;;;;;4928498;29;20106;-71
2022/11/14 06:36:17;;;;;;;62.13;36.28;;;6.70;99.90;;;;;;4919490;29;20055;-71
2022/11/14 06:38:44;;;;;;;61.63;35.70;;;6.70;99.90;;;;;;4924594;28;20047;-70
2022/11/14 06:41:15;;;;;;;71.05;36.95;;;6.70;99.90;;;;;;4923112;29;20059;-71
2022/11/14 06:43:43;;;;;;;61.85;34.90;;;6.70;99.90;;;;;;4940435;28;20334;-70
2022/11/14 06:46:11;;;;;;;64.18;35.72;;;6.60;99.90;;;;;;4921353;29;20138;-70
2022/11/14 06:48:37;;;;;;;61.80;35.25;;;6.60;99.90;;;;;;4926409;28;20047;-71
2022/11/14 06:51:04;;;;;;;60.33;34.45;;;6.70;99.90;;;;;;4930174;29;20047;-70
2022/11/14 06:53:33;;;;;;;62.63;36.08;;;6.70;99.90;;;;;;4923054;29;20051;-71
2022/11/14 06:56:02;;;;;;;62.40;35.35;;;6.60;99.90;;;;;;4939340;29;20055;-71
2022/11/14 06:58:30;;;;;;;63.63;33.67;;;6.60;99.90;;;;;;4947307;28;20055;-70
2022/11/14 07:01:01;;;;;;;58.58;34.42;;;6.60;99.90;;;;;;4891195;29;20134;-70
2022/11/14 07:03:27;;;;;;;64.50;36.17;;;6.60;99.90;;;;;;4922657;28;20051;-70
2022/11/14 07:05:56;;;;;;;62.65;35.38;;;6.60;99.90;;;;;;4921278;29;20047;-55
2022/11/14 07:08:22;;;;;;;61.50;35.08;;;6.60;99.90;;;;;;4925985;29;20782;-55
2022/11/14 07:10:48;;;;;;;64.28;34.95;;;6.50;99.90;;;;;;4907511;29;20053;-54
2022/11/14 07:13:13;;;;;;;58.08;33.88;;;6.50;99.90;;;;;;4945613;28;20127;-55
2022/11/14 07:15:39;;;;;;;60.50;34.92;;;6.50;99.90;;;;;;4916671;29;20086;-55
2022/11/14 07:18:05;;;;;;;65.03;35.35;;;6.50;99.90;;;;;;4930868;29;20036;-56
2022/11/14 07:20:31;;;;;;;62.38;35.13;;;6.50;99.90;;;;;;4928707;29;20547;-54
2022/11/14 07:22:57;;;;;;;63.60;34.50;;;6.50;99.90;;;;;;4901356;29;20527;-54
2022/11/14 07:25:23;;;;;;;64.53;35.72;;;6.50;99.90;;;;;;4912366;29;20048;-53
2022/11/14 07:27:48;;;;;;;65.65;35.90;;;6.40;99.90;;;;;;4886007;29;20047;-55
2022/11/14 07:30:14;;;;;;;64.82;35.28;;;6.40;99.90;;;;;;4905448;29;20495;-54
2022/11/14 07:32:40;;;;;;;62.72;35.30;;;6.50;99.90;;;;;;4904309;29;20520;-55
2022/11/14 07:35:06;;;;;;;63.63;35.17;;;6.50;99.90;;;;;;4904365;29;20056;-55
2022/11/14 07:37:32;;;;;;;66.15;35.50;;;6.50;99.90;;;;;;4894350;29;20134;-54
2022/11/14 07:39:58;;;;;;;63.50;34.92;;;6.50;99.90;;;;;;4905445;29;20512;-56
2022/11/14 07:42:28;;;;;;;70.03;35.60;;;6.50;99.90;;;;;;4904369;29;20513;-55
2022/11/14 07:44:54;;;;;;;68.60;37.20;;;6.50;99.90;;;;;;4906490;29;20048;-54
2022/11/14 07:47:20;;;;;;;63.42;35.13;;;6.50;99.90;;;;;;4904575;29;20091;-55
2022/11/14 07:49:45;;;;;;;67.35;34.90;;;6.50;99.90;;;;;;4904649;29;20059;-55
2022/11/14 07:52:11;;;;;;;66.43;35.65;;;6.50;99.90;;;;;;4905214;29;20067;-56
2022/11/14 07:54:37;;;;;;;64.38;34.72;;;6.60;99.90;;;;;;4905977;29;20099;-56
2022/11/14 07:57:03;;;;;;;65.00;34.78;;;6.50;99.90;;;;;;4904508;29;20105;-54
2022/11/14 07:59:29;;;;;;;74.43;36.72;;;6.50;99.90;;;;;;4903990;29;20052;-55
2022/11/14 08:01:54;;;;;;;64.25;35.78;;;6.50;99.90;;;;;;4905635;29;20055;-54
2022/11/14 08:04:20;;;;;;;66.82;36.65;;;6.50;99.90;;;;;;4907467;29;20102;-54
2022/11/14 08:06:46;;;;;;;69.50;37.17;;;6.50;99.90;;;;;;4912030;29;20040;-55
2022/11/14 08:09:12;;;;;;;73.65;38.63;;;6.50;99.90;;;;;;4909976;29;20058;-54
2022/11/14 08:11:46;;;;;;;73.07;37.65;;;6.50;99.90;;;;;;4911464;29;20048;-56
2022/11/14 08:14:12;;;;;;;64.20;35.33;;;6.50;99.90;;;;;;4915091;29;20111;-55
2022/11/14 08:16:38;;;;;;;64.43;35.28;;;6.70;99.90;;;;;;4913241;29;20048;-55
2022/11/14 08:19:04;;;;;;;70.10;36.90;;;6.60;99.90;;;;;;4907655;29;20055;-55
2022/11/14 08:21:30;;;;;;;72.90;36.78;;;6.60;99.90;;;;;;4907276;29;20130;-55
2022/11/14 08:23:56;;;;;;;76.95;37.83;;;6.60;99.90;;;;;;4900662;29;20054;-56
2022/11/14 08:26:22;;;;;;;68.57;36.45;;;6.60;99.90;;;;;;4908801;29;20048;-54
2022/11/14 08:28:53;;;;;;;70.18;36.47;;;6.70;99.90;;;;;;4891102;29;20143;-56
2022/11/14 08:31:19;;;;;;;69.53;36.83;;;6.70;99.90;;;;;;4911349;29;20048;-55
2022/11/14 08:33:46;;;;;;;65.30;36.35;;;6.60;99.90;;;;;;4908818;29;20410;-53
2022/11/14 08:36:12;;;;;;;62.55;34.05;;;6.60;99.90;;;;;;4907006;29;20052;-54
2022/11/14 08:38:37;;;;;;;63.20;34.10;;;6.60;99.90;;;;;;4907312;29;20120;-56
2022/11/14 08:41:04;;;;;;;60.17;34.50;;;6.60;99.90;;;;;;4907787;29;20071;-54
2022/11/14 08:43:31;;;;;;;70.22;35.45;;;6.60;99.90;;;;;;4908063;29;20050;-52
2022/11/14 08:45:58;;;;;;;67.68;35.63;;;6.60;99.90;;;;;;4906248;29;20183;-54
2022/11/14 08:48:27;;;;;;;66.90;36.50;;;6.60;99.90;;;;;;4906748;29;20547;-55
2022/11/14 08:50:53;;;;;;;70.65;38.15;;;6.60;99.90;;;;;;4907479;29;20047;-55
2022/11/14 08:53:19;;;;;;;73.40;39.03;;;6.70;99.90;;;;;;4907042;29;20140;-55
2022/11/14 08:55:46;;;;;;;72.30;40.28;;;6.70;99.90;;;;;;4907347;29;20099;-56
2022/11/14 08:58:12;;;;;;;70.00;38.28;;;6.70;99.90;;;;;;4907706;29;20054;-56
2022/11/14 09:00:38;;;;;;;66.05;36.78;;;6.70;99.90;;;;;;4907539;29;20052;-53
2022/11/14 09:03:08;;;;;;;67.32;37.95;;;6.80;99.90;;;;;;4908353;29;20051;-55
2022/11/14 09:05:35;;;;;;;69.63;36.97;;;6.90;99.90;;;;;;4909070;29;20052;-56
2022/11/14 09:08:01;;;;;;;72.47;40.05;;;6.90;99.90;;;;;;4908453;29;20040;-54
2022/11/14 09:10:27;;;;;;;72.80;40.88;;;6.90;99.90;;;;;;4873646;29;20051;-54
2022/11/14 09:12:57;;;;;;;76.55;39.20;;;7.00;99.90;;;;;;4908204;29;20123;-54
2022/11/14 09:15:23;;;;;;;69.55;38.33;;;7.00;99.90;;;;;;4908411;29;20130;-56
2022/11/14 09:17:53;;;;;;;73.95;40.38;;;7.00;99.90;;;;;;4907155;29;20052;-55
2022/11/14 09:20:19;;;;;;;65.85;37.55;;;7.00;99.90;;;;;;4907523;29;20573;-54
2022/11/14 09:22:45;;;;;;;67.20;37.10;;;7.00;99.90;;;;;;4908696;29;20150;-55
2022/11/14 09:25:11;;;;;;;66.05;36.85;;;7.00;99.90;;;;;;4906387;29;20052;-55
2022/11/14 09:27:37;;;;;;;63.08;36.60;;;7.00;99.90;;;;;;4905470;29;20074;-56
2022/11/14 09:30:03;;;;;;;62.58;37.38;;;7.00;99.90;;;;;;4900440;29;20063;-54
2022/11/14 09:32:29;;;;;;;67.03;39.05;;;7.00;99.90;;;;;;4904680;29;20368;-56
2022/11/14 09:34:55;;;;;;;71.93;40.10;;;7.00;99.90;;;;;;4902001;29;20123;-55
2022/11/14 09:37:21;;;;;;;69.28;39.28;;;7.10;99.90;;;;;;4907237;29;20182;-55
2022/11/14 09:39:47;;;;;;;68.97;38.60;;;7.10;99.90;;;;;;4906430;29;20044;-52
2022/11/14 09:42:18;;;;;;;69.13;38.72;;;7.20;99.90;;;;;;4904536;29;20479;-54
2022/11/14 09:44:56;;;;;;;62.92;37.67;;;7.20;99.90;;;;;;4895737;29;20230;-54
2022/11/14 09:47:28;;;;;;;62.78;36.35;;;7.40;99.90;;;;;;4906952;29;20443;-55
2022/11/14 09:50:01;;;;;;;60.33;35.53;;;7.50;99.90;;;;;;4907122;29;20066;-55
2022/11/14 09:52:37;;;;;;;59.75;35.58;;;7.60;99.90;;;;;;4905512;29;20044;-56
2022/11/14 09:55:18;;;;;;;62.72;36.28;;;7.60;99.90;;;;;;4907339;29;20071;-55
2022/11/14 09:57:45;;;;;;;60.90;36.15;;;7.60;99.90;;;;;;4889837;29;20167;-55
2022/11/14 10:00:12;;;;;;;63.92;36.30;;;7.50;99.90;;;;;;4906377;29;20127;-54
2022/11/14 10:02:53;;;;;;;63.33;36.25;;;7.50;99.90;;;;;;4904946;29;20052;-55
2022/11/14 10:05:36;;;;;;;61.00;36.15;;;7.40;99.90;;;;;;4905690;29;20090;-55
2022/11/14 10:08:30;;;;;;;63.42;36.92;;;7.40;99.90;;;;;;4904944;29;20428;-55
2022/11/14 10:11:21;;;;;;;63.28;37.22;;;7.30;99.90;;;;;;4901824;29;20221;-55
2022/11/14 10:14:16;;;;;;;67.97;39.35;;;7.30;99.90;;;;;;4905572;29;20075;-54
2022/11/14 10:16:48;;;;;;;67.35;39.50;;;7.30;99.90;;;;;;4906253;29;20047;-55
2022/11/14 10:19:29;;;;;;;66.95;39.20;;;7.30;99.90;;;;;;4907112;29;20059;-55
2022/11/14 10:22:14;;;;;;;69.50;38.60;;;7.40;99.90;;;;;;4909988;29;20083;-55
2022/11/14 10:25:17;;;;;;;63.08;38.03;;;7.40;99.90;;;;;;4906140;29;20071;-55
2022/11/14 10:28:07;;;;;;;65.05;37.08;;;7.60;99.90;;;;;;4903741;29;20083;-55
2022/11/14 10:30:42;;;;;;;65.43;36.85;;;7.80;99.90;;;;;;4906979;29;20048;-56
2022/11/14 10:33:14;;;;;;;59.63;36.80;;;7.80;99.90;;;;;;4895663;29;20051;-55
2022/11/14 10:35:44;;;;;;;64.50;36.63;;;7.90;99.90;;;;;;4895402;29;20070;-56
2022/11/14 10:38:13;;;;;;;63.58;37.50;;;7.90;99.90;;;;;;4904904;29;20066;-54
2022/11/14 10:41:08;;;;;;;57.72;35.65;;;8.10;99.90;;;;;;4906331;29;20056;-54
2022/11/14 10:43:46;;;;;;;58.33;35.38;;;8.10;99.90;;;;;;4904065;29;20063;-54
2022/11/14 10:46:20;;;;;;;56.85;35.22;;;8.20;99.90;;;;;;4904839;29;20487;-55
2022/11/14 10:48:49;;;;;;;57.97;35.70;;;8.20;99.90;;;;;;4905234;29;20084;-55
2022/11/14 10:51:55;;;;;;;55.92;35.63;;;8.10;99.90;;;;;;4906566;29;20058;-55
2022/11/14 10:54:38;;;;;;;58.65;35.72;;;8.10;99.90;;;;;;4890141;29;20142;-55
2022/11/14 10:57:16;;;;;;;62.08;36.35;;;8.10;99.90;;;;;;4906756;29;20043;-53
2022/11/14 10:59:43;;;;;;;61.42;37.22;;;8.10;99.90;;;;;;4906117;29;20088;-55
2022/11/14 11:02:09;;;;;;;62.20;36.38;;;8.20;99.90;;;;;;4905566;29;20479;-56
2022/11/14 11:04:40;;;;;;;61.58;36.85;;;8.20;99.90;;;;;;4888597;29;20044;-53
2022/11/14 11:07:06;;;;;;;66.85;36.70;;;8.30;99.90;;;;;;4907843;29;20643;-55
2022/11/14 11:12:35;;;;;;;64.93;36.03;;;8.30;99.90;;;;;;4905040;29;20051;-55
2022/11/14 11:15:32;;;;;;;56.42;35.35;;;8.40;99.90;;;;;;4905280;29;20055;-55
2022/11/14 11:18:00;;;;;;;53.60;33.13;;;8.50;99.90;;;;;;4905664;29;20048;-56
2022/11/14 11:20:37;;;;;;;53.58;32.97;;;8.50;99.90;;;;;;4908844;29;20064;-55
2022/11/14 11:23:09;;;;;;;53.05;33.78;;;8.70;99.90;;;;;;4907015;29;20062;-54
2022/11/14 11:25:36;;;;;;;55.20;34.28;;;8.80;99.90;;;;;;4905953;29;20132;-53
2022/11/14 11:28:16;;;;;;;52.65;33.65;;;9.00;99.90;;;;;;4905187;29;20066;-56
2022/11/14 11:30:55;;;;;;;49.47;33.05;;;9.10;99.90;;;;;;4906243;29;20178;-55
2022/11/14 11:33:24;;;;;;;52.88;34.15;;;9.20;99.90;;;;;;4878054;29;20095;-56
2022/11/14 11:35:55;;;;;;;49.20;32.20;;;9.40;99.90;;;;;;4904078;29;20062;-54
2022/11/14 11:38:23;;;;;;;49.42;31.55;;;9.50;99.90;;;;;;4905535;29;20091;-56
2022/11/14 11:41:16;;;;;;;46.55;30.75;;;9.70;99.90;;;;;;4905766;29;20051;-56
2022/11/14 11:43:50;;;;;;;44.95;29.05;;;9.70;99.90;;;;;;4910368;29;20044;-55
2022/11/14 11:46:39;;;;;;;45.10;29.58;;;9.70;99.90;;;;;;4889507;29;20492;-55
2022/11/14 11:49:35;;;;;;;43.47;28.77;;;9.70;99.90;;;;;;4905435;29;20058;-55
2022/11/14 11:52:10;;;;;;;43.40;29.00;;;9.70;99.90;;;;;;4889206;29;20044;-55
2022/11/14 11:54:51;;;;;;;43.72;28.73;;;9.60;99.90;;;;;;4905150;29;20063;-53
2022/11/14 11:57:22;;;;;;;48.25;31.13;;;9.60;99.90;;;;;;4903665;29;20048;-56
2022/11/14 11:59:53;;;;;;;41.22;27.85;;;9.60;99.90;;;;;;4905848;29;20059;-56
2022/11/14 12:02:23;;;;;;;45.60;29.98;;;9.50;99.90;;;;;;4912754;29;20050;-54
2022/11/14 12:04:51;;;;;;;44.53;29.48;;;9.50;99.90;;;;;;4912675;29;20055;-55
2022/11/14 12:07:21;;;;;;;44.75;29.00;;;9.40;99.90;;;;;;4912438;29;20052;-56
2022/11/14 12:09:49;;;;;;;46.28;29.90;;;9.30;99.90;;;;;;4905394;29;20063;-56
2022/11/14 12:12:42;;;;;;;43.83;28.20;;;9.30;99.90;;;;;;4904729;29;20055;-55
2022/11/14 12:15:39;;;;;;;43.50;29.08;;;9.30;99.90;;;;;;4904684;29;20052;-55
2022/11/14 12:18:19;;;;;;;43.80;29.02;;;9.40;99.90;;;;;;4905033;29;20514;-56
2022/11/14 12:21:02;;;;;;;43.30;29.10;;;9.50;99.90;;;;;;4904864;29;20060;-56
2022/11/14 12:24:07;;;;;;;41.92;28.45;;;9.60;99.90;;;;;;4906330;29;20087;-55
2022/11/14 12:27:10;;;;;;;41.08;27.13;;;9.80;99.90;;;;;;4904755;29;20063;-56
2022/11/14 12:29:55;;;;;;;42.90;27.58;;;10.00;99.90;;;;;;4906011;29;20119;-54
2022/11/14 12:32:30;;;;;;;39.80;25.85;;;10.10;99.90;;;;;;4906112;29;20099;-55
2022/11/14 12:34:57;;;;;;;40.45;26.80;;;10.20;99.90;;;;;;4904685;29;20150;-56
2022/11/14 12:37:31;;;;;;;39.40;27.08;;;10.30;99.90;;;;;;4905172;29;20063;-55
2022/11/14 12:40:05;;;;;;;38.58;26.15;;;10.40;99.90;;;;;;4906790;29;20479;-56
2022/11/14 12:42:31;;;;;;;42.13;26.73;;;10.50;99.90;;;;;;4904966;29;20130;-54
2022/11/14 12:44:57;;;;;;;37.30;25.67;;;10.50;99.90;;;;;;4905783;29;20063;-54
2022/11/14 12:47:27;;;;;;;36.53;25.17;;;10.60;99.90;;;;;;4888798;29;20044;-55
2022/11/14 12:49:53;;;;;;;38.20;25.45;;;10.60;99.90;;;;;;4904294;29;20055;-56